Time;durP1;ratioP1;P1;durP2;ratioP2;P2;SDS_P1;SDS_P2;PMS_P1;PMS_P2;Temp;Humidity;BMP_temperature;BMP_pressure;BME280_temperature;BME280_humidity;BME280_pressure;Samples;Min_cycle;Max_cycle;Signal;HPM_P1;HPM_P2
2021/07/26 00:01:51;;;;;;;3.88;2.95;;;19.10;81.60;;;;;;5016869;28;20020;-83
2021/07/26 00:04:17;;;;;;;5.38;3.40;;;19.10;81.50;;;;;;5009273;28;20381;-83
2021/07/26 00:06:43;;;;;;;4.38;2.70;;;19.10;83.60;;;;;;5033441;28;20042;-83
2021/07/26 00:09:09;;;;;;;3.65;2.78;;;19.00;82.50;;;;;;5016855;28;20039;-83
2021/07/26 00:11:34;;;;;;;2.45;2.17;;;19.00;82.10;;;;;;5033973;28;20028;-83
2021/07/26 00:14:00;;;;;;;5.70;2.90;;;18.90;82.70;;;;;;5047285;28;20432;-83
2021/07/26 00:16:25;;;;;;;4.65;2.92;;;18.90;82.30;;;;;;5048827;28;20036;-83
2021/07/26 00:18:51;;;;;;;4.47;2.42;;;19.00;82.00;;;;;;5050660;28;20514;-83
2021/07/26 00:21:16;;;;;;;5.50;3.10;;;19.00;83.30;;;;;;5011174;28;20043;-82
2021/07/26 00:23:43;;;;;;;4.75;3.33;;;18.90;84.20;;;;;;5049901;28;20029;-83
2021/07/26 00:26:09;;;;;;;4.45;2.58;;;18.80;83.50;;;;;;5018163;28;20032;-83
2021/07/26 00:28:35;;;;;;;5.00;3.30;;;18.80;83.50;;;;;;5047247;28;20501;-83
2021/07/26 00:31:00;;;;;;;3.28;2.50;;;18.80;83.80;;;;;;5017510;28;20432;-84
2021/07/26 00:34:08;;;;;;;6.70;3.30;;;18.70;84.20;;;;;;5047118;28;20033;-83
2021/07/26 00:36:34;;;;;;;3.38;2.45;;;18.60;83.00;;;;;;5031051;28;20028;-83
2021/07/26 00:39:01;;;;;;;7.32;3.03;;;18.50;84.80;;;;;;5015148;28;20785;-84
2021/07/26 00:41:26;;;;;;;5.00;2.97;;;18.50;85.20;;;;;;5032216;28;20064;-84
2021/07/26 00:43:52;;;;;;;4.47;2.72;;;18.50;84.40;;;;;;5031693;28;20110;-84
2021/07/26 00:46:17;;;;;;;3.88;2.40;;;18.60;84.70;;;;;;5033075;28;20025;-84
2021/07/26 00:48:43;;;;;;;3.45;3.10;;;18.70;84.90;;;;;;5038273;28;20025;-84
2021/07/26 00:51:09;;;;;;;3.00;2.58;;;18.70;86.60;;;;;;5011300;28;20028;-83
2021/07/26 00:53:34;;;;;;;3.72;3.05;;;18.80;86.10;;;;;;5046855;28;20102;-84
2021/07/26 00:56:00;;;;;;;4.43;3.30;;;18.80;86.90;;;;;;5048690;28;20494;-83
2021/07/26 00:58:26;;;;;;;3.55;2.40;;;18.70;86.30;;;;;;5033742;28;20607;-84
2021/07/26 01:00:51;;;;;;;2.97;2.33;;;18.70;87.70;;;;;;5016653;28;20036;-84
2021/07/26 01:03:18;;;;;;;3.58;2.47;;;18.70;87.40;;;;;;5014066;28;20020;-84
2021/07/26 01:05:44;;;;;;;3.30;2.58;;;18.70;87.30;;;;;;5021028;28;20037;-84
2021/07/26 01:08:09;;;;;;;3.65;2.50;;;18.70;88.50;;;;;;5031613;28;20035;-84
2021/07/26 01:10:35;;;;;;;4.60;2.60;;;18.60;88.20;;;;;;5026739;28;20472;-84
2021/07/26 01:13:00;;;;;;;4.00;2.60;;;18.60;89.00;;;;;;5017335;28;20538;-84
2021/07/26 01:15:26;;;;;;;5.32;3.60;;;18.60;90.20;;;;;;5032754;28;20036;-84
2021/07/26 01:18:16;;;;;;;3.55;2.60;;;18.50;90.20;;;;;;5032565;28;20028;-84
2021/07/26 01:20:41;;;;;;;3.58;2.80;;;18.40;89.90;;;;;;5047842;28;20031;-84
2021/07/26 01:23:07;;;;;;;3.13;2.50;;;18.30;90.40;;;;;;5032641;28;20356;-84
2021/07/26 01:25:36;;;;;;;2.80;2.40;;;18.40;90.40;;;;;;5031994;28;20489;-84
2021/07/26 01:28:02;;;;;;;3.83;3.08;;;18.50;90.20;;;;;;5033667;28;20112;-84
2021/07/26 01:30:27;;;;;;;3.13;2.63;;;18.40;90.10;;;;;;5032816;28;20119;-84
2021/07/26 01:32:53;;;;;;;5.20;2.92;;;18.40;90.70;;;;;;5033205;28;20107;-84
2021/07/26 01:35:18;;;;;;;4.20;2.85;;;18.50;90.60;;;;;;5031295;28;20036;-85
2021/07/26 01:37:44;;;;;;;3.72;2.38;;;18.40;90.60;;;;;;5032399;28;20041;-85
2021/07/26 01:40:10;;;;;;;3.10;2.80;;;18.40;91.00;;;;;;5015796;28;20032;-85
2021/07/26 01:42:43;;;;;;;3.60;2.70;;;18.40;91.70;;;;;;5032238;28;20083;-84
2021/07/26 01:45:12;;;;;;;5.20;2.70;;;18.30;91.40;;;;;;5015614;28;20056;-85
2021/07/26 01:47:48;;;;;;;2.72;2.50;;;18.30;91.40;;;;;;5048008;28;20524;-84
2021/07/26 01:50:14;;;;;;;3.88;2.60;;;18.30;91.50;;;;;;5029346;28;20040;-86
2021/07/26 01:52:40;;;;;;;3.47;2.95;;;18.40;91.30;;;;;;5032091;28;20471;-85
2021/07/26 01:55:06;;;;;;;4.32;3.03;;;18.30;92.10;;;;;;5031045;28;20044;-85
2021/07/26 01:57:31;;;;;;;4.70;2.83;;;18.20;91.60;;;;;;5048530;28;20052;-85
2021/07/26 01:59:57;;;;;;;6.78;3.17;;;18.20;92.10;;;;;;5035300;28;20124;-84
2021/07/26 02:02:23;;;;;;;4.47;2.92;;;18.20;91.60;;;;;;5031989;28;20086;-85
2021/07/26 02:04:50;;;;;;;4.22;2.83;;;18.20;92.10;;;;;;5048367;28;20025;-85
2021/07/26 02:07:16;;;;;;;3.05;2.60;;;18.30;91.60;;;;;;5030364;28;20035;-84
2021/07/26 02:09:41;;;;;;;2.58;2.35;;;18.40;91.40;;;;;;5016195;28;20033;-85
2021/07/26 02:12:07;;;;;;;2.80;2.40;;;18.40;91.20;;;;;;5031160;28;20047;-85
2021/07/26 02:14:33;;;;;;;3.53;2.80;;;18.30;91.50;;;;;;5031466;28;20474;-84
2021/07/26 02:16:58;;;;;;;4.43;2.58;;;18.20;91.70;;;;;;5029598;28;20036;-84
2021/07/26 02:19:24;;;;;;;3.35;2.42;;;18.10;91.40;;;;;;5030990;28;20043;-85
2021/07/26 02:21:51;;;;;;;3.90;2.53;;;18.00;91.90;;;;;;5032530;28;20024;-85
2021/07/26 02:24:17;;;;;;;4.72;3.03;;;18.10;92.00;;;;;;5013160;28;20032;-85
2021/07/26 02:26:42;;;;;;;3.35;2.67;;;17.90;91.90;;;;;;5047140;28;20392;-84
2021/07/26 02:29:08;;;;;;;4.10;3.55;;;17.90;92.10;;;;;;5029176;28;20037;-84
2021/07/26 02:31:33;;;;;;;2.42;2.22;;;17.80;93.20;;;;;;5031321;28;20029;-84
2021/07/26 02:33:59;;;;;;;3.80;2.85;;;17.70;92.70;;;;;;5031390;28;20051;-84
2021/07/26 02:36:24;;;;;;;3.50;3.20;;;17.80;92.90;;;;;;5014151;28;20111;-84
2021/07/26 02:38:50;;;;;;;3.58;3.00;;;17.70;93.40;;;;;;5030411;28;20048;-84
2021/07/26 02:41:16;;;;;;;5.40;3.25;;;17.70;92.60;;;;;;5014564;28;20032;-84
2021/07/26 02:43:41;;;;;;;4.82;3.13;;;17.70;93.60;;;;;;5016752;28;20028;-84
2021/07/26 02:46:08;;;;;;;6.25;3.33;;;17.60;92.90;;;;;;5032239;28;20052;-84
2021/07/26 02:48:33;;;;;;;5.63;3.40;;;17.60;94.60;;;;;;5031740;28;20021;-84
2021/07/26 02:50:59;;;;;;;4.90;3.03;;;17.60;94.20;;;;;;5015487;28;20471;-84
2021/07/26 02:53:25;;;;;;;5.35;3.47;;;17.30;93.80;;;;;;5031859;28;20052;-84
2021/07/26 02:55:50;;;;;;;6.55;4.25;;;17.30;95.50;;;;;;5032311;28;20423;-84
2021/07/26 02:58:16;;;;;;;6.05;3.10;;;17.30;94.10;;;;;;5017262;28;20571;-84
2021/07/26 03:00:41;;;;;;;3.88;3.40;;;17.10;96.00;;;;;;5031681;28;20021;-84
2021/07/26 03:03:07;;;;;;;3.70;3.03;;;17.30;95.80;;;;;;5031207;28;20029;-84
2021/07/26 03:05:33;;;;;;;4.70;3.25;;;17.10;95.30;;;;;;5045331;28;20048;-85
2021/07/26 03:07:58;;;;;;;3.10;2.80;;;17.10;94.80;;;;;;5031074;28;20024;-84
2021/07/26 03:10:24;;;;;;;2.47;2.28;;;17.20;94.30;;;;;;5031795;28;20039;-84
2021/07/26 03:12:49;;;;;;;4.53;2.20;;;17.50;93.50;;;;;;5031453;28;20028;-84
2021/07/26 03:15:15;;;;;;;5.85;3.40;;;17.50;93.20;;;;;;5029955;28;20041;-84
2021/07/26 03:17:40;;;;;;;5.88;3.33;;;17.40;94.30;;;;;;5030430;28;20365;-84
2021/07/26 03:20:06;;;;;;;4.95;3.17;;;17.20;94.20;;;;;;5031662;28;20028;-84
2021/07/26 03:22:47;;;;;;;3.67;3.15;;;17.10;93.50;;;;;;5028496;28;20112;-84
2021/07/26 03:25:13;;;;;;;6.68;3.20;;;17.10;93.80;;;;;;5046353;28;20090;-84
2021/07/26 03:27:38;;;;;;;4.75;3.40;;;17.00;95.50;;;;;;5033964;28;20032;-84
2021/07/26 03:30:04;;;;;;;5.60;3.50;;;16.80;93.80;;;;;;5017026;28;20039;-84
2021/07/26 03:32:30;;;;;;;5.00;3.22;;;16.70;95.40;;;;;;5034081;28;20085;-84
2021/07/26 03:34:55;;;;;;;4.10;3.60;;;16.80;96.20;;;;;;5034823;28;20397;-84
2021/07/26 03:37:21;;;;;;;6.72;3.55;;;16.70;94.70;;;;;;5049293;28;20029;-84
2021/07/26 03:39:46;;;;;;;5.68;3.83;;;16.70;95.60;;;;;;5034106;28;20048;-85
2021/07/26 03:42:12;;;;;;;4.05;3.50;;;16.70;95.30;;;;;;5017308;28;20032;-84
2021/07/26 03:44:37;;;;;;;4.47;3.28;;;16.70;94.10;;;;;;5029963;28;20044;-85
2021/07/26 03:47:03;;;;;;;8.55;3.63;;;16.70;94.10;;;;;;5034200;28;20040;-85
2021/07/26 03:49:29;;;;;;;7.78;3.25;;;16.60;94.20;;;;;;5019554;28;20037;-84
2021/07/26 03:51:54;;;;;;;6.00;3.47;;;16.60;94.50;;;;;;5050810;28;20223;-85
2021/07/26 03:54:20;;;;;;;10.93;4.28;;;16.60;94.40;;;;;;5033128;28;20467;-84
2021/07/26 03:56:45;;;;;;;5.90;3.55;;;16.60;94.20;;;;;;5027676;28;20029;-84
2021/07/26 03:59:11;;;;;;;8.95;3.60;;;16.50;94.50;;;;;;5020307;28;20124;-85
2021/07/26 04:01:39;;;;;;;8.23;3.75;;;16.50;94.40;;;;;;5027638;28;20098;-85
2021/07/26 04:04:04;;;;;;;7.78;3.78;;;16.50;94.60;;;;;;5019198;28;20125;-84
2021/07/26 04:06:30;;;;;;;5.55;3.72;;;16.50;94.90;;;;;;5027771;28;20447;-84
2021/07/26 04:08:56;;;;;;;5.43;3.50;;;16.70;97.40;;;;;;5029801;28;20056;-85
2021/07/26 04:11:27;;;;;;;6.40;4.00;;;16.60;95.40;;;;;;5032345;28;20392;-85
2021/07/26 04:13:59;;;;;;;8.75;3.38;;;16.50;95.70;;;;;;5034982;28;20521;-85
2021/07/26 04:16:25;;;;;;;4.43;3.22;;;16.50;95.20;;;;;;5032541;28;20393;-85
2021/07/26 04:18:51;;;;;;;4.18;3.30;;;16.60;95.60;;;;;;5050034;28;20028;-84
2021/07/26 04:21:17;;;;;;;4.03;3.08;;;16.70;95.30;;;;;;5015963;28;20422;-85
2021/07/26 04:23:43;;;;;;;5.65;3.17;;;16.90;95.10;;;;;;5032795;28;20029;-85
2021/07/26 04:26:08;;;;;;;4.85;3.55;;;16.80;95.10;;;;;;5016203;28;20021;-84
2021/07/26 04:28:34;;;;;;;5.65;3.38;;;16.90;94.60;;;;;;5032523;28;20025;-84
2021/07/26 04:31:00;;;;;;;4.10;3.47;;;16.90;94.90;;;;;;5050281;28;20048;-84
2021/07/26 04:33:25;;;;;;;5.90;3.33;;;16.90;94.40;;;;;;5032104;28;20025;-84
2021/07/26 04:35:51;;;;;;;7.63;3.97;;;17.00;94.50;;;;;;5032302;28;20384;-85
2021/07/26 04:38:16;;;;;;;5.30;3.67;;;17.10;95.10;;;;;;5033562;28;20029;-85
2021/07/26 04:40:42;;;;;;;4.97;3.33;;;17.20;94.90;;;;;;5029687;28;20024;-86
2021/07/26 04:43:08;;;;;;;4.18;3.22;;;17.20;94.80;;;;;;5016179;28;20041;-85
2021/07/26 04:45:33;;;;;;;4.03;3.10;;;17.30;94.70;;;;;;5046925;28;20119;-84
2021/07/26 04:48:00;;;;;;;5.45;2.78;;;17.40;94.00;;;;;;5020888;28;20044;-84
2021/07/26 04:50:25;;;;;;;7.20;3.33;;;17.50;94.20;;;;;;5032210;28;20017;-85
2021/07/26 04:52:51;;;;;;;3.45;3.13;;;17.60;94.60;;;;;;4683420;28;9999619;-84
2021/07/26 04:55:16;;;;;;;4.82;3.70;;;17.70;94.70;;;;;;4683295;28;10000010;-84
2021/07/26 04:57:42;;;;;;;6.25;3.33;;;17.90;95.10;;;;;;5030718;28;20024;-84
2021/07/26 05:00:08;;;;;;;6.35;3.47;;;18.00;94.60;;;;;;5017176;28;20484;-84
2021/07/26 05:02:33;;;;;;;5.80;3.70;;;18.20;94.60;;;;;;5032249;28;20085;-84
2021/07/26 05:05:01;;;;;;;3.95;3.38;;;18.40;94.60;;;;;;5048802;28;20044;-83
2021/07/26 05:07:27;;;;;;;4.70;3.13;;;18.60;94.50;;;;;;5015657;28;20444;-83
2021/07/26 05:09:52;;;;;;;3.90;3.00;;;18.80;94.40;;;;;;5015080;28;20045;-83
2021/07/26 05:12:18;;;;;;;5.38;2.92;;;19.00;94.40;;;;;;5045175;28;20044;-82
2021/07/26 05:14:49;;;;;;;4.45;2.92;;;19.10;94.30;;;;;;5049278;28;20032;-82
2021/07/26 05:17:26;;;;;;;5.00;2.90;;;19.40;94.20;;;;;;5033949;28;20119;-83
2021/07/26 05:19:52;;;;;;;5.80;2.90;;;19.50;93.60;;;;;;5034152;28;20035;-83
2021/07/26 05:22:18;;;;;;;3.63;2.55;;;19.80;94.60;;;;;;5026609;28;20037;-83
2021/07/26 05:24:43;;;;;;;7.32;3.10;;;20.10;94.00;;;;;;5048273;28;20036;-83
2021/07/26 05:27:09;;;;;;;6.10;2.88;;;20.30;94.10;;;;;;5015542;28;20040;-83
2021/07/26 05:29:35;;;;;;;4.18;2.83;;;20.70;94.30;;;;;;5024098;28;20239;-83
2021/07/26 05:32:00;;;;;;;9.18;2.70;;;20.80;94.40;;;;;;5017294;28;20039;-83
2021/07/26 05:34:26;;;;;;;6.10;2.88;;;21.00;94.00;;;;;;5031336;28;20044;-83
2021/07/26 05:36:52;;;;;;;5.35;2.75;;;21.30;94.40;;;;;;5016699;28;20527;-84
2021/07/26 05:39:17;;;;;;;3.30;2.85;;;21.40;94.10;;;;;;5021695;28;20033;-84
2021/07/26 05:41:44;;;;;;;4.90;2.95;;;21.80;94.30;;;;;;5031944;28;20124;-84
2021/07/26 05:44:09;;;;;;;5.22;2.78;;;22.00;94.10;;;;;;5031792;28;20059;-84
2021/07/26 05:46:35;;;;;;;8.20;2.70;;;22.20;94.10;;;;;;5032030;28;20100;-84
2021/07/26 05:49:00;;;;;;;4.00;2.65;;;22.50;94.00;;;;;;5029171;28;20024;-84
2021/07/26 05:51:26;;;;;;;3.05;2.75;;;22.70;93.70;;;;;;5027962;28;20102;-84
2021/07/26 05:53:52;;;;;;;3.63;2.05;;;22.90;93.40;;;;;;5025727;28;20407;-84
2021/07/26 05:56:18;;;;;;;1.90;1.75;;;22.80;90.90;;;;;;5044822;28;20024;-85
2021/07/26 05:58:46;;;;;;;4.28;2.88;;;23.00;91.90;;;;;;5042469;28;20079;-84
2021/07/26 06:03:44;;;;;;;3.75;2.75;;;23.50;92.80;;;;;;5035776;28;20044;-84
2021/07/26 06:06:10;;;;;;;3.15;2.30;;;23.60;92.10;;;;;;5031660;28;20071;-84
2021/07/26 06:08:35;;;;;;;12.77;2.67;;;23.80;88.20;;;;;;5031986;28;20032;-84
2021/07/26 06:11:02;;;;;;;8.10;2.80;;;23.40;90.40;;;;;;5048690;28;20033;-84
2021/07/26 06:13:28;;;;;;;8.85;2.30;;;23.50;89.30;;;;;;5043387;28;20397;-84
2021/07/26 06:15:54;;;;;;;2.03;1.80;;;23.60;86.70;;;;;;5017978;28;20417;-84
2021/07/26 06:18:20;;;;;;;4.50;2.08;;;23.80;86.70;;;;;;5031615;28;20029;-84
2021/07/26 06:20:45;;;;;;;3.47;2.03;;;23.90;87.90;;;;;;5030843;28;20031;-84
2021/07/26 06:23:11;;;;;;;2.30;2.05;;;24.10;86.10;;;;;;5015668;28;20074;-84
2021/07/26 06:25:37;;;;;;;2.88;1.90;;;24.10;87.90;;;;;;5030054;28;20017;-84
2021/07/26 06:28:02;;;;;;;2.90;2.35;;;24.00;86.40;;;;;;5017583;28;20501;-84
2021/07/26 06:30:28;;;;;;;3.95;2.22;;;23.70;84.80;;;;;;5016715;28;20025;-84
2021/07/26 06:32:53;;;;;;;3.40;2.03;;;23.60;85.80;;;;;;5032914;28;20104;-84
2021/07/26 06:35:20;;;;;;;4.68;2.03;;;23.70;85.20;;;;;;5030931;28;20076;-83
2021/07/26 06:37:45;;;;;;;2.30;2.05;;;23.90;86.10;;;;;;5030542;28;20117;-84
2021/07/26 06:40:11;;;;;;;4.03;2.25;;;24.20;84.40;;;;;;5031894;28;20475;-83
2021/07/26 06:42:37;;;;;;;3.13;2.25;;;24.40;84.50;;;;;;5014593;28;20039;-83
2021/07/26 06:45:04;;;;;;;2.00;1.80;;;24.80;90.00;;;;;;5016113;28;20484;-83
2021/07/26 06:47:29;;;;;;;3.85;2.28;;;24.70;82.40;;;;;;5028235;28;20104;-83
2021/07/26 06:49:56;;;;;;;2.20;2.00;;;24.30;83.40;;;;;;5018044;28;20166;-83
2021/07/26 06:52:21;;;;;;;4.18;2.10;;;24.50;85.80;;;;;;5030532;28;20412;-83
2021/07/26 06:54:47;;;;;;;3.65;1.92;;;24.70;82.70;;;;;;5034728;28;20037;-84
2021/07/26 06:57:12;;;;;;;3.72;2.10;;;24.80;84.10;;;;;;5030289;28;20067;-83
2021/07/26 06:59:38;;;;;;;3.47;2.00;;;25.10;86.00;;;;;;5033491;28;20060;-83
2021/07/26 07:02:03;;;;;;;2.85;2.03;;;24.90;81.50;;;;;;5035005;28;20514;-84
2021/07/26 07:04:29;;;;;;;2.50;1.80;;;24.90;84.40;;;;;;5041538;28;20100;-84
2021/07/26 07:06:54;;;;;;;3.10;1.85;;;24.80;80.60;;;;;;5036723;28;20055;-84
2021/07/26 07:09:20;;;;;;;4.07;2.28;;;24.70;81.40;;;;;;5018903;28;20024;-84
2021/07/26 07:11:46;;;;;;;5.18;2.63;;;25.00;81.70;;;;;;5036609;28;20036;-84
2021/07/26 07:14:11;;;;;;;3.17;2.00;;;25.00;81.00;;;;;;5018962;28;20032;-84
2021/07/26 07:16:37;;;;;;;4.00;2.60;;;25.60;81.00;;;;;;5036605;28;20090;-84
2021/07/26 07:19:02;;;;;;;3.83;2.20;;;25.10;80.60;;;;;;5038766;28;20024;-84
2021/07/26 07:21:30;;;;;;;3.97;2.38;;;25.60;82.70;;;;;;5033364;28;20033;-84
2021/07/26 07:23:57;;;;;;;5.85;2.60;;;25.50;78.80;;;;;;5020462;28;20025;-84
2021/07/26 07:26:23;;;;;;;5.63;2.67;;;25.20;80.90;;;;;;5047904;28;20392;-84
2021/07/26 07:28:49;;;;;;;4.80;2.00;;;25.80;79.20;;;;;;5029159;28;20087;-83
2021/07/26 07:31:17;;;;;;;3.92;2.22;;;25.80;78.50;;;;;;5016256;28;20086;-84
2021/07/26 07:33:43;;;;;;;4.85;2.30;;;26.00;77.30;;;;;;5051737;28;20036;-85
2021/07/26 07:36:09;;;;;;;4.15;2.50;;;25.40;77.60;;;;;;5032269;28;20033;-85
2021/07/26 07:38:34;;;;;;;2.13;1.92;;;25.50;77.80;;;;;;5037100;28;20038;-85
2021/07/26 07:41:00;;;;;;;4.40;1.90;;;25.80;77.30;;;;;;5035943;28;20622;-85
2021/07/26 07:43:26;;;;;;;3.67;2.10;;;26.50;77.40;;;;;;5032375;28;20529;-85
2021/07/26 07:45:54;;;;;;;7.32;1.80;;;26.90;76.00;;;;;;5049638;28;20055;-85
2021/07/26 07:48:26;;;;;;;2.53;1.92;;;26.70;74.80;;;;;;5016106;28;20039;-85
2021/07/26 07:50:52;;;;;;;3.05;1.90;;;26.50;76.70;;;;;;5018721;28;20028;-85
2021/07/26 07:53:18;;;;;;;2.92;2.50;;;27.00;74.20;;;;;;5034219;28;20498;-86
2021/07/26 07:55:43;;;;;;;2.65;2.08;;;26.60;74.90;;;;;;5036372;28;20082;-86
2021/07/26 07:58:09;;;;;;;3.13;2.53;;;26.30;75.60;;;;;;5021937;28;20488;-87
2021/07/26 08:00:34;;;;;;;1.85;1.65;;;26.40;75.50;;;;;;5020354;28;20046;-87
2021/07/26 08:03:00;;;;;;;2.72;1.98;;;26.80;75.10;;;;;;5022625;28;20086;-86
2021/07/26 08:05:27;;;;;;;2.67;2.15;;;27.60;73.10;;;;;;5034970;28;20401;-86
2021/07/26 08:07:52;;;;;;;4.15;1.90;;;27.50;71.40;;;;;;5034712;28;20028;-86
2021/07/26 08:10:18;;;;;;;7.57;3.22;;;27.10;72.90;;;;;;5031215;28;20032;-86
2021/07/26 08:12:43;;;;;;;4.35;1.95;;;26.90;72.40;;;;;;5035312;28;20442;-85
2021/07/26 08:15:09;;;;;;;3.92;2.30;;;26.70;72.60;;;;;;5015318;28;20033;-84
2021/07/26 08:17:46;;;;;;;5.05;2.30;;;27.00;75.80;;;;;;5033160;28;20076;-85
2021/07/26 08:20:14;;;;;;;4.78;2.58;;;26.80;72.10;;;;;;5015347;28;20033;-85
2021/07/26 08:22:40;;;;;;;4.40;2.40;;;27.00;72.70;;;;;;5050738;28;20507;-84
2021/07/26 08:25:06;;;;;;;3.88;2.42;;;27.10;71.60;;;;;;5035346;28;20040;-84
2021/07/26 08:27:34;;;;;;;2.40;2.20;;;27.30;73.20;;;;;;5048916;28;20484;-86
2021/07/26 08:30:00;;;;;;;4.45;1.70;;;27.00;71.60;;;;;;5034228;28;20111;-85
2021/07/26 08:32:25;;;;;;;3.85;2.28;;;27.00;72.00;;;;;;5034175;28;20111;-85
2021/07/26 08:34:51;;;;;;;2.45;2.25;;;27.10;73.40;;;;;;5049296;28;20514;-85
2021/07/26 08:37:28;;;;;;;2.85;2.28;;;27.30;72.10;;;;;;5016578;28;20036;-85
2021/07/26 08:39:54;;;;;;;3.70;1.70;;;27.20;71.80;;;;;;5008181;28;20485;-85
2021/07/26 08:42:19;;;;;;;2.67;2.25;;;27.20;72.60;;;;;;5030475;28;20036;-85
2021/07/26 08:44:47;;;;;;;1.85;1.65;;;27.40;72.40;;;;;;5034676;28;20031;-85
2021/07/26 08:47:12;;;;;;;2.10;1.58;;;27.70;70.90;;;;;;5033445;28;20060;-85
2021/07/26 08:49:38;;;;;;;3.60;1.92;;;27.60;70.80;;;;;;5034448;28;20904;-84
2021/07/26 08:52:04;;;;;;;2.95;2.22;;;27.60;70.80;;;;;;5017775;28;20025;-87
2021/07/26 08:54:30;;;;;;;2.55;1.90;;;27.60;71.30;;;;;;5032531;28;20140;-85
2021/07/26 08:56:58;;;;;;;2.08;1.83;;;27.70;70.30;;;;;;5019265;28;20048;-85
2021/07/26 08:59:23;;;;;;;2.40;1.90;;;27.60;72.50;;;;;;5012192;28;20029;-85
2021/07/26 09:01:49;;;;;;;6.05;2.45;;;27.60;69.20;;;;;;5018355;28;20098;-86
2021/07/26 09:04:16;;;;;;;3.85;2.47;;;27.60;69.50;;;;;;5013771;28;20040;-85
2021/07/26 09:06:42;;;;;;;5.75;2.95;;;27.40;69.70;;;;;;4995232;28;1108877;-85
2021/07/26 09:09:07;;;;;;;4.15;3.75;;;27.80;71.10;;;;;;5016961;28;20522;-85
2021/07/26 09:11:43;;;;;;;3.60;2.78;;;27.70;70.30;;;;;;5047150;28;20667;-84
2021/07/26 09:14:09;;;;;;;3.38;2.70;;;27.70;70.30;;;;;;5031007;28;20459;-86
2021/07/26 09:16:34;;;;;;;5.75;2.95;;;27.80;69.10;;;;;;5033148;28;20056;-85
2021/07/26 09:19:07;;;;;;;3.75;2.15;;;27.80;70.60;;;;;;5016037;28;20082;-84
2021/07/26 09:21:56;;;;;;;4.07;2.50;;;28.60;70.70;;;;;;5046584;28;20048;-85
2021/07/26 09:24:28;;;;;;;3.22;2.85;;;28.70;69.10;;;;;;5030606;28;20123;-84
2021/07/26 09:26:54;;;;;;;3.20;2.85;;;27.90;68.40;;;;;;5031912;28;20190;-84
2021/07/26 09:29:27;;;;;;;3.20;2.90;;;27.80;68.80;;;;;;5048207;28;20112;-84
2021/07/26 09:31:57;;;;;;;3.67;3.30;;;27.70;69.30;;;;;;5063892;28;20029;-85
2021/07/26 09:34:26;;;;;;;3.38;2.97;;;27.90;69.60;;;;;;5014004;28;20093;-85
2021/07/26 09:36:52;;;;;;;2.92;2.50;;;28.00;69.50;;;;;;5033032;28;20539;-83
2021/07/26 09:39:27;;;;;;;3.58;2.75;;;28.40;70.40;;;;;;5033188;28;20067;-85
2021/07/26 09:41:53;;;;;;;3.78;2.72;;;28.40;67.90;;;;;;5031975;28;20033;-85
2021/07/26 09:44:26;;;;;;;3.47;2.70;;;28.40;67.20;;;;;;5032915;28;20506;-85
2021/07/26 09:46:53;;;;;;;3.42;3.13;;;28.00;67.70;;;;;;5046765;28;20409;-84
2021/07/26 09:49:19;;;;;;;3.75;2.92;;;27.90;68.00;;;;;;5044733;28;20373;-84
2021/07/26 09:52:01;;;;;;;3.92;3.40;;;28.00;67.60;;;;;;5033749;28;20333;-84
2021/07/26 09:54:47;;;;;;;4.13;2.72;;;28.40;67.00;;;;;;5032271;28;20040;-85
2021/07/26 09:57:19;;;;;;;;;;;28.60;66.50;;;;;;5034335;28;20029;-85
2021/07/26 09:59:45;;;;;;;3.65;2.75;;;28.70;65.90;;;;;;5061956;28;20279;-83
2021/07/26 10:02:18;;;;;;;3.63;2.92;;;28.80;66.90;;;;;;5032037;28;20036;-83
2021/07/26 10:04:45;;;;;;;7.82;3.35;;;28.80;65.70;;;;;;5014894;28;20387;-84
2021/07/26 10:07:12;;;;;;;4.30;2.95;;;28.90;67.00;;;;;;5016028;28;20035;-84
2021/07/26 10:09:41;;;;;;;3.00;2.63;;;29.10;66.10;;;;;;5047343;28;20112;-83
2021/07/26 10:12:17;;;;;;;2.47;2.28;;;29.00;65.00;;;;;;5033396;28;20054;-84
2021/07/26 10:14:43;;;;;;;3.45;2.92;;;29.10;64.70;;;;;;5048623;28;20032;-84
2021/07/26 10:17:09;;;;;;;3.97;2.40;;;29.30;67.30;;;;;;5050084;28;20042;-84
2021/07/26 10:19:35;;;;;;;2.90;2.10;;;29.20;63.90;;;;;;5030086;28;20069;-84
2021/07/26 10:22:01;;;;;;;3.35;2.63;;;29.00;64.80;;;;;;5017817;28;20407;-84
2021/07/26 10:24:40;;;;;;;4.50;2.50;;;29.20;64.60;;;;;;5032537;28;20102;-83
2021/07/26 10:27:19;;;;;;;2.95;2.15;;;29.10;63.00;;;;;;5014109;28;20059;-83
2021/07/26 10:29:52;;;;;;;3.03;1.98;;;29.40;64.10;;;;;;5029903;28;20455;-84
2021/07/26 10:32:29;;;;;;;2.35;1.98;;;29.60;63.40;;;;;;5014815;28;20039;-83
2021/07/26 10:35:01;;;;;;;5.43;1.90;;;29.50;62.50;;;;;;5047163;28;20040;-84
2021/07/26 10:37:39;;;;;;;3.63;1.95;;;29.50;62.40;;;;;;5007538;28;20055;-85
2021/07/26 10:40:23;;;;;;;3.35;1.75;;;29.40;63.10;;;;;;5047736;28;20377;-83
2021/07/26 10:42:52;;;;;;;3.45;2.13;;;29.70;64.80;;;;;;5029978;28;20060;-83
2021/07/26 10:45:35;;;;;;;3.63;2.50;;;29.80;63.50;;;;;;5014287;28;20055;-84
2021/07/26 10:48:22;;;;;;;3.03;1.90;;;29.90;64.50;;;;;;5062620;28;20442;-83
2021/07/26 10:50:55;;;;;;;4.80;2.05;;;29.70;62.30;;;;;;5058977;28;20052;-79
2021/07/26 10:53:32;;;;;;;5.05;2.00;;;30.00;64.20;;;;;;5044121;28;20465;-78
2021/07/26 10:56:08;;;;;;;2.72;2.15;;;30.10;62.80;;;;;;5044707;28;20063;-79
2021/07/26 10:58:40;;;;;;;2.72;1.95;;;30.30;62.10;;;;;;5044747;28;20032;-78
2021/07/26 11:01:28;;;;;;;3.40;2.30;;;30.30;63.80;;;;;;5045053;28;20070;-79
2021/07/26 11:03:57;;;;;;;2.55;1.95;;;30.40;60.90;;;;;;5030135;28;20029;-79
2021/07/26 11:06:37;;;;;;;3.28;1.95;;;31.00;61.60;;;;;;5028002;28;20135;-79
2021/07/26 11:09:21;;;;;;;3.40;1.73;;;31.10;60.30;;;;;;5045937;28;20032;-79
2021/07/26 11:11:53;;;;;;;3.13;2.22;;;30.90;59.90;;;;;;5060280;28;20392;-78
2021/07/26 11:14:18;;;;;;;4.38;2.70;;;31.20;60.20;;;;;;5011135;28;20115;-78
2021/07/26 11:16:55;;;;;;;3.10;2.10;;;31.80;60.80;;;;;;5028827;28;20465;-78
2021/07/26 11:19:44;;;;;;;3.40;2.58;;;31.90;58.20;;;;;;5058519;28;20539;-78
2021/07/26 11:22:16;;;;;;;2.13;1.80;;;32.30;59.90;;;;;;5053488;28;20040;-77
2021/07/26 11:24:48;;;;;;;2.78;2.30;;;32.60;58.30;;;;;;5061746;28;20032;-77
2021/07/26 11:27:32;;;;;;;2.22;2.03;;;32.80;57.30;;;;;;5046328;28;20048;-78
2021/07/26 11:29:58;;;;;;;2.38;2.15;;;32.60;56.30;;;;;;5044221;28;20073;-77
2021/07/26 11:32:25;;;;;;;2.20;1.92;;;32.70;58.90;;;;;;5057192;28;20033;-77
2021/07/26 11:34:57;;;;;;;3.40;2.15;;;32.50;56.00;;;;;;5030026;28;20064;-77
2021/07/26 11:37:30;;;;;;;4.50;1.73;;;32.80;55.60;;;;;;5012962;28;20373;-76
2021/07/26 11:40:00;;;;;;;2.60;1.90;;;32.80;56.60;;;;;;5029336;28;20400;-77
2021/07/26 11:42:36;;;;;;;3.40;2.10;;;32.50;55.20;;;;;;5041647;28;20393;-77
2021/07/26 11:45:03;;;;;;;4.00;1.70;;;32.70;56.90;;;;;;5042549;28;20036;-77
2021/07/26 11:47:35;;;;;;;4.53;1.90;;;32.80;55.30;;;;;;5028642;28;20120;-77
2021/07/26 11:50:06;;;;;;;4.63;1.70;;;32.70;54.10;;;;;;5046960;28;20041;-77
2021/07/26 11:52:31;;;;;;;2.17;1.60;;;32.80;55.30;;;;;;5048416;28;20519;-77
2021/07/26 11:54:57;;;;;;;3.00;1.80;;;32.40;54.30;;;;;;5031442;28;20036;-77
2021/07/26 11:57:22;;;;;;;2.00;1.70;;;32.60;56.40;;;;;;5030136;28;20040;-77
2021/07/26 11:59:49;;;;;;;3.90;2.90;;;33.40;56.90;;;;;;5052330;28;20292;-77
2021/07/26 12:02:22;;;;;;;2.25;2.03;;;33.70;55.70;;;;;;5015988;28;20036;-76
2021/07/26 12:04:47;;;;;;;3.85;1.73;;;33.60;54.20;;;;;;5049501;28;20056;-77
2021/07/26 12:07:13;;;;;;;2.80;1.80;;;33.20;53.30;;;;;;5016038;28;20503;-77
2021/07/26 12:09:48;;;;;;;4.05;1.73;;;33.00;53.20;;;;;;5033186;28;20413;-77
2021/07/26 12:12:14;;;;;;;1.88;1.67;;;32.40;53.90;;;;;;5046935;28;20034;-77
2021/07/26 12:14:41;;;;;;;3.70;1.58;;;33.20;56.00;;;;;;5062825;28;20062;-77
2021/07/26 12:17:25;;;;;;;2.38;1.92;;;33.90;54.10;;;;;;5047242;28;20120;-77
2021/07/26 12:20:02;;;;;;;2.28;2.03;;;34.00;54.10;;;;;;5062564;28;20037;-77
2021/07/26 12:22:40;;;;;;;3.50;1.90;;;33.20;52.30;;;;;;5047226;28;20033;-78
2021/07/26 12:25:19;;;;;;;2.22;1.67;;;33.00;52.70;;;;;;5050197;28;20040;-77
2021/07/26 12:27:57;;;;;;;2.10;1.65;;;33.40;52.20;;;;;;5046208;28;20036;-77
2021/07/26 12:30:23;;;;;;;2.22;1.98;;;33.60;53.70;;;;;;5029290;28;20556;-77
2021/07/26 12:32:50;;;;;;;2.60;1.60;;;34.00;53.50;;;;;;5034030;28;20075;-77
2021/07/26 12:35:19;;;;;;;2.55;2.05;;;34.30;53.20;;;;;;5033219;28;20044;-77
2021/07/26 12:38:07;;;;;;;2.58;1.70;;;33.90;51.10;;;;;;5065429;28;20301;-77
2021/07/26 12:40:37;;;;;;;2.63;1.58;;;33.80;52.70;;;;;;5024877;28;20050;-77
2021/07/26 12:43:04;;;;;;;2.20;1.90;;;34.20;51.80;;;;;;5031496;28;20055;-77
2021/07/26 12:45:29;;;;;;;2.58;1.98;;;34.40;51.90;;;;;;5029620;28;20065;-77
2021/07/26 12:47:55;;;;;;;2.20;1.70;;;34.80;52.50;;;;;;5049516;28;20060;-77
2021/07/26 12:50:20;;;;;;;1.92;1.77;;;34.80;51.80;;;;;;5048182;28;20227;-76
2021/07/26 12:52:46;;;;;;;3.25;2.30;;;34.40;50.60;;;;;;5047938;28;20079;-76
2021/07/26 12:55:16;;;;;;;2.78;1.90;;;34.80;51.50;;;;;;5030883;28;20036;-76